createdAt,value
2018-09-21T00:02:03.408Z,93.60
2018-09-21T00:04:33.251Z,93.80
2018-09-21T00:07:02.559Z,94.00
2018-09-21T00:09:32.308Z,94.10
2018-09-21T00:12:01.392Z,94.40
2018-09-21T00:14:30.432Z,94.20
2018-09-21T00:16:59.588Z,94.40
2018-09-21T00:19:28.768Z,94.40
2018-09-21T00:21:58.526Z,94.50
2018-09-21T00:24:27.643Z,94.50
2018-09-21T00:26:57.280Z,94.70
2018-09-21T00:29:26.411Z,94.90
2018-09-21T00:31:56.088Z,95.40
2018-09-21T00:34:26.112Z,95.20
2018-09-21T00:36:55.299Z,95.20
2018-09-21T00:39:24.389Z,95.50
2018-09-21T00:41:53.483Z,95.80
2018-09-21T00:44:23.296Z,95.70
2018-09-21T00:46:52.638Z,95.50
2018-09-21T00:49:21.769Z,95.80
2018-09-21T00:51:50.991Z,95.80
2018-09-21T00:54:20.727Z,96.00
2018-09-21T00:56:49.791Z,96.00
2018-09-21T00:59:18.896Z,96.20
2018-09-21T01:01:47.974Z,96.10
2018-09-21T01:04:17.063Z,96.30
2018-09-21T01:06:46.104Z,96.50
2018-09-21T01:09:15.209Z,96.50
2018-09-21T01:11:44.375Z,96.50
2018-09-21T01:14:13.439Z,96.80
2018-09-21T01:16:49.372Z,96.80
2018-09-21T01:19:18.518Z,96.80
2018-09-21T01:21:47.622Z,97.10
2018-09-21T01:24:17.195Z,97.30
2018-09-21T01:26:46.557Z,97.20
2018-09-21T01:29:15.691Z,97.40
2018-09-21T01:31:44.830Z,97.70
2018-09-21T01:34:14.377Z,97.70
2018-09-21T01:36:43.463Z,97.90
2018-09-21T01:39:13.144Z,98.50
2018-09-21T01:41:42.232Z,98.20
2018-09-21T01:44:11.328Z,98.20
2018-09-21T01:46:40.512Z,98.30
2018-09-21T01:49:09.591Z,98.50
2018-09-21T01:51:38.769Z,98.60
2018-09-21T01:54:07.838Z,98.80
2018-09-21T01:56:36.902Z,99.20
2018-09-21T01:59:06.784Z,98.80
2018-09-21T02:01:35.903Z,98.80
2018-09-21T02:04:05.002Z,98.80
2018-09-21T02:06:34.094Z,98.70
2018-09-21T02:09:03.334Z,98.80
2018-09-21T02:11:32.415Z,98.80
2018-09-21T02:14:01.505Z,98.80
2018-09-21T02:16:30.839Z,98.80
2018-09-21T02:18:59.926Z,98.90
2018-09-21T02:21:29.020Z,99.10
2018-09-21T02:23:58.082Z,99.10
2018-09-21T02:26:27.172Z,99.10
2018-09-21T02:28:56.224Z,99.20
2018-09-21T02:31:25.353Z,99.20
2018-09-21T02:33:54.428Z,99.10
2018-09-21T02:36:23.494Z,99.10
2018-09-21T02:38:52.563Z,99.20
2018-09-21T02:41:22.866Z,99.10
2018-09-21T02:43:52.038Z,99.10
2018-09-21T02:46:21.122Z,99.20
2018-09-21T02:48:50.268Z,99.10
2018-09-21T02:51:19.366Z,99.30
2018-09-21T02:53:48.612Z,99.10
2018-09-21T02:56:18.055Z,99.20
2018-09-21T02:58:47.253Z,99.50
2018-09-21T03:01:16.431Z,99.00
2018-09-21T03:03:45.695Z,99.20
2018-09-21T03:06:14.870Z,99.20
2018-09-21T03:08:44.490Z,99.40
2018-09-21T03:11:13.590Z,99.30
2018-09-21T03:13:42.739Z,99.30
2018-09-21T03:16:11.817Z,99.50
2018-09-21T03:18:41.010Z,99.40
2018-09-21T03:21:10.021Z,99.50
2018-09-21T03:23:39.095Z,99.40
2018-09-21T03:26:08.143Z,99.30
2018-09-21T03:28:37.242Z,99.30
2018-09-21T03:31:06.747Z,99.40
2018-09-21T03:33:35.816Z,99.30
2018-09-21T03:36:04.897Z,99.00
2018-09-21T03:38:33.975Z,99.20
2018-09-21T03:41:03.100Z,99.00
2018-09-21T03:43:32.230Z,99.00
2018-09-21T03:46:01.959Z,98.90
2018-09-21T03:48:31.073Z,98.80
2018-09-21T03:51:00.355Z,98.80
2018-09-21T03:53:29.396Z,98.50
2018-09-21T03:55:58.983Z,98.40
2018-09-21T03:58:28.615Z,98.50
2018-09-21T04:00:57.850Z,98.50
2018-09-21T04:03:26.869Z,98.50
2018-09-21T04:05:55.996Z,98.50
2018-09-21T04:08:26.191Z,98.30
2018-09-21T04:10:56.207Z,98.30
2018-09-21T04:13:26.069Z,98.20
2018-09-21T04:15:55.180Z,98.30
2018-09-21T04:18:24.276Z,98.30
2018-09-21T04:20:53.381Z,98.20
2018-09-21T04:23:22.531Z,98.20
2018-09-21T04:25:51.602Z,98.10
2018-09-21T04:28:20.668Z,98.10
2018-09-21T04:30:50.270Z,98.30
2018-09-21T04:33:19.359Z,98.20
2018-09-21T04:35:48.429Z,98.30
2018-09-21T04:38:17.586Z,98.20
2018-09-21T04:40:46.823Z,98.20
2018-09-21T04:43:15.912Z,98.20
2018-09-21T04:45:45.684Z,98.30
2018-09-21T04:48:14.831Z,98.30
2018-09-21T04:50:44.145Z,98.50
2018-09-21T04:53:13.261Z,98.70
2018-09-21T04:55:42.467Z,98.90
2018-09-21T04:58:11.578Z,98.90
2018-09-21T05:00:40.711Z,98.90
2018-09-21T05:03:09.828Z,99.10
2018-09-21T05:05:39.012Z,99.20
2018-09-21T05:08:08.288Z,99.30
2018-09-21T05:10:37.375Z,99.30
2018-09-21T05:13:07.068Z,99.40
2018-09-21T05:15:36.141Z,99.30
2018-09-21T05:18:05.269Z,99.50
2018-09-21T05:20:35.271Z,99.20
2018-09-21T05:23:04.383Z,99.60
2018-09-21T05:25:33.968Z,99.30
2018-09-21T05:28:03.191Z,99.70
2018-09-21T05:30:32.383Z,99.30
2018-09-21T05:33:01.513Z,99.30
2018-09-21T05:35:30.597Z,99.40
2018-09-21T05:37:59.662Z,99.50
2018-09-21T05:40:29.256Z,99.60
2018-09-21T05:42:58.317Z,99.70
2018-09-21T05:45:27.368Z,99.70
2018-09-21T05:47:56.588Z,99.90
2018-09-21T05:50:26.015Z,99.90
2018-09-21T05:52:55.143Z,99.90
2018-09-21T05:55:25.226Z,99.90
2018-09-21T05:57:54.348Z,99.90
2018-09-21T06:00:23.527Z,99.90
2018-09-21T06:02:53.251Z,99.90
2018-09-21T06:05:22.352Z,99.90
2018-09-21T06:07:51.482Z,99.90
2018-09-21T06:10:20.599Z,99.90
2018-09-21T06:12:49.796Z,99.90
2018-09-21T06:15:18.903Z,99.90
2018-09-21T06:17:48.031Z,99.90
2018-09-21T06:20:17.138Z,99.90
2018-09-21T06:22:46.276Z,99.90
2018-09-21T06:25:15.416Z,99.90
2018-09-21T06:27:45.104Z,99.90
2018-09-21T06:30:14.233Z,99.90
2018-09-21T06:32:43.332Z,99.90
2018-09-21T06:35:12.505Z,99.90
2018-09-21T06:37:41.807Z,99.90
2018-09-21T06:40:10.943Z,99.90
2018-09-21T06:42:40.052Z,99.90
2018-09-21T06:45:09.258Z,99.90
2018-09-21T06:47:38.375Z,99.90
2018-09-21T06:50:07.606Z,99.90
2018-09-21T06:52:36.679Z,99.90
2018-09-21T06:55:06.409Z,99.90
2018-09-21T06:57:36.047Z,99.90
2018-09-21T07:00:05.256Z,99.90
2018-09-21T07:02:35.033Z,99.90
2018-09-21T07:05:09.580Z,99.90
2018-09-21T07:07:38.674Z,99.90
2018-09-21T07:10:07.948Z,99.90
2018-09-21T07:12:36.978Z,99.90
2018-09-21T07:15:06.561Z,99.90
2018-09-21T07:17:35.660Z,99.90
2018-09-21T07:20:04.861Z,99.90
2018-09-21T07:22:34.453Z,99.90
2018-09-21T07:25:03.868Z,99.90
2018-09-21T07:27:33.000Z,99.90
2018-09-21T07:30:02.162Z,99.90
2018-09-21T07:32:31.325Z,99.90
2018-09-21T07:35:00.965Z,99.90
2018-09-21T07:37:30.134Z,99.90
2018-09-21T07:39:59.205Z,99.90
2018-09-21T07:42:28.348Z,99.90
2018-09-21T07:44:57.479Z,99.90
2018-09-21T07:47:26.580Z,99.90
2018-09-21T07:49:56.323Z,99.90
2018-09-21T07:52:25.999Z,99.90
2018-09-21T07:54:55.075Z,99.90
2018-09-21T07:57:24.231Z,99.90
2018-09-21T07:59:53.496Z,99.50
2018-09-21T08:02:22.896Z,99.70
2018-09-21T08:04:52.083Z,99.90
2018-09-21T08:07:21.375Z,99.90
2018-09-21T08:09:50.499Z,99.90
2018-09-21T08:12:19.627Z,99.70
2018-09-21T08:14:48.787Z,99.90
2018-09-21T08:17:17.971Z,99.80
2018-09-21T08:19:47.178Z,99.80
2018-09-21T08:22:16.241Z,99.80
2018-09-21T08:24:45.480Z,99.90
2018-09-21T08:27:16.519Z,99.90
2018-09-21T08:29:45.884Z,99.90
2018-09-21T08:32:15.220Z,99.90
2018-09-21T08:34:44.551Z,99.90
2018-09-21T08:37:14.087Z,99.90
2018-09-21T08:39:43.130Z,99.90
2018-09-21T08:42:12.310Z,99.90
2018-09-21T08:44:41.484Z,99.90
2018-09-21T08:47:10.916Z,99.90
2018-09-21T08:49:39.994Z,99.90
2018-09-21T08:52:09.664Z,99.80
2018-09-21T08:54:38.807Z,99.80
2018-09-21T08:57:07.899Z,99.70
2018-09-21T08:59:37.589Z,99.90
2018-09-21T09:02:06.751Z,99.90
2018-09-21T09:04:35.878Z,99.90
2018-09-21T09:07:05.132Z,99.90
2018-09-21T09:09:34.266Z,99.90
2018-09-21T09:12:03.472Z,99.90
2018-09-21T09:14:32.577Z,99.90
2018-09-21T09:17:01.657Z,99.90
2018-09-21T09:19:30.778Z,99.90
2018-09-21T09:21:59.868Z,99.90
2018-09-21T09:24:29.053Z,99.90
2018-09-21T09:26:58.125Z,99.90
2018-09-21T09:29:27.409Z,99.90
2018-09-21T09:31:56.526Z,99.90
2018-09-21T09:34:25.725Z,99.90
2018-09-21T09:36:54.880Z,99.90
2018-09-21T09:39:24.008Z,99.90
2018-09-21T09:41:53.279Z,99.90
2018-09-21T09:44:22.592Z,99.90
2018-09-21T09:46:51.935Z,99.90
2018-09-21T09:49:23.098Z,99.90
2018-09-21T09:51:52.368Z,99.90
2018-09-21T09:54:21.412Z,99.90
2018-09-21T09:56:50.503Z,99.90
2018-09-21T09:59:20.786Z,99.90
2018-09-21T10:01:49.878Z,99.90
2018-09-21T10:04:18.953Z,99.90
2018-09-21T10:06:48.174Z,99.90
2018-09-21T10:09:17.240Z,99.90
2018-09-21T10:11:46.362Z,99.90
2018-09-21T10:14:15.500Z,99.90
2018-09-21T10:16:44.593Z,99.90
2018-09-21T10:19:14.239Z,99.90
2018-09-21T10:21:43.555Z,99.90
2018-09-21T10:24:12.814Z,99.90
2018-09-21T10:26:42.563Z,99.90
2018-09-21T10:29:11.625Z,99.90
2018-09-21T10:31:40.821Z,99.90
2018-09-21T10:34:10.015Z,99.90
2018-09-21T10:36:39.242Z,99.90
2018-09-21T10:39:08.672Z,99.90
2018-09-21T10:41:37.975Z,99.90
2018-09-21T10:44:07.143Z,99.90
2018-09-21T10:46:36.440Z,99.90
2018-09-21T10:49:05.673Z,99.90
2018-09-21T10:51:34.735Z,99.90
2018-09-21T10:54:03.841Z,99.90
2018-09-21T10:56:32.918Z,99.90
2018-09-21T10:59:02.124Z,99.90
2018-09-21T11:01:31.206Z,99.90
2018-09-21T11:04:00.489Z,99.90
2018-09-21T11:06:29.588Z,99.90
2018-09-21T11:08:59.614Z,99.90
2018-09-21T11:11:28.815Z,99.90
2018-09-21T11:13:58.519Z,99.90
2018-09-21T11:16:27.687Z,99.90
2018-09-21T11:18:57.395Z,99.90
2018-09-21T11:21:26.539Z,99.90
2018-09-21T11:23:55.715Z,99.90
2018-09-21T11:26:24.876Z,99.90
2018-09-21T11:28:54.172Z,99.90
2018-09-21T11:31:23.767Z,99.90
2018-09-21T11:33:53.540Z,99.90
2018-09-21T11:36:22.651Z,99.90
2018-09-21T11:38:51.795Z,99.90
2018-09-21T11:41:20.968Z,99.90
2018-09-21T11:43:50.189Z,99.90
2018-09-21T11:46:19.999Z,99.90
2018-09-21T11:48:49.205Z,99.90
2018-09-21T11:51:18.297Z,99.90
2018-09-21T11:53:47.361Z,99.90
2018-09-21T11:56:16.497Z,99.90
2018-09-21T11:58:46.042Z,99.90
2018-09-21T12:01:16.372Z,99.90
2018-09-21T12:03:46.502Z,99.90
2018-09-21T12:06:15.595Z,99.90
2018-09-21T12:08:44.681Z,99.90
2018-09-21T12:11:14.835Z,99.90
2018-09-21T12:13:43.930Z,99.90
2018-09-21T12:16:13.196Z,99.90
2018-09-21T12:18:42.350Z,99.90
2018-09-21T12:21:11.503Z,99.90
2018-09-21T12:23:40.698Z,99.90
2018-09-21T12:26:10.238Z,99.90
2018-09-21T12:28:39.412Z,99.90
2018-09-21T12:31:08.466Z,99.90
2018-09-21T12:33:37.667Z,99.90
2018-09-21T12:36:08.337Z,99.90
2018-09-21T12:38:37.569Z,99.90
2018-09-21T12:41:06.654Z,99.90
2018-09-21T12:43:35.803Z,99.90
2018-09-21T12:46:08.705Z,99.90
2018-09-21T12:48:38.604Z,99.90
2018-09-21T12:51:07.768Z,99.90
2018-09-21T12:53:36.911Z,99.90
2018-09-21T12:56:06.124Z,99.90
2018-09-21T12:58:35.942Z,99.90
2018-09-21T13:01:05.780Z,99.90
2018-09-21T13:03:34.871Z,99.90
2018-09-21T13:06:04.156Z,99.90
2018-09-21T13:08:33.403Z,99.90
2018-09-21T13:11:02.603Z,99.90
2018-09-21T13:13:31.704Z,99.90
2018-09-21T13:16:01.780Z,99.90
2018-09-21T13:18:30.988Z,99.90
2018-09-21T13:21:00.221Z,99.90
2018-09-21T13:23:29.688Z,99.90
2018-09-21T13:26:02.618Z,99.90
2018-09-21T13:28:31.761Z,99.90
2018-09-21T13:31:00.849Z,99.90
2018-09-21T13:33:30.049Z,99.90
2018-09-21T13:35:59.187Z,99.90
2018-09-21T13:38:28.452Z,99.90
2018-09-21T13:40:57.694Z,99.90
2018-09-21T13:43:26.892Z,99.90
2018-09-21T13:45:56.041Z,99.90
2018-09-21T13:48:26.093Z,99.90
2018-09-21T13:50:55.421Z,99.90
2018-09-21T13:53:24.578Z,99.90
2018-09-21T13:55:53.691Z,99.90
2018-09-21T13:58:22.890Z,99.90
2018-09-21T14:00:52.044Z,99.90
2018-09-21T14:03:21.785Z,99.90
2018-09-21T14:05:50.960Z,99.90
2018-09-21T14:08:20.821Z,99.90
2018-09-21T14:10:50.148Z,99.90
2018-09-21T14:13:19.319Z,99.90
2018-09-21T14:15:48.974Z,99.90
2018-09-21T14:18:18.123Z,99.90
2018-09-21T14:20:47.208Z,99.90
2018-09-21T14:23:16.418Z,99.90
2018-09-21T14:25:45.511Z,99.90
2018-09-21T14:28:14.720Z,99.90
2018-09-21T14:30:43.847Z,99.90
2018-09-21T14:33:13.007Z,99.90
2018-09-21T14:35:42.206Z,99.90
2018-09-21T14:38:11.569Z,99.90
2018-09-21T14:40:41.265Z,99.90
2018-09-21T14:43:10.617Z,99.90
2018-09-21T14:45:39.692Z,99.90
2018-09-21T14:48:09.036Z,99.90
2018-09-21T14:50:38.869Z,99.90
2018-09-21T14:53:07.998Z,99.90
2018-09-21T14:55:37.156Z,99.90
2018-09-21T14:58:06.359Z,99.90
2018-09-21T15:00:35.525Z,99.90
2018-09-21T15:03:05.372Z,99.90
2018-09-21T15:05:34.550Z,99.90
2018-09-21T15:08:03.704Z,99.90
2018-09-21T15:10:33.015Z,99.90
2018-09-21T15:13:02.265Z,99.90
2018-09-21T15:15:31.408Z,99.90
2018-09-21T15:18:00.608Z,99.90
2018-09-21T15:20:29.747Z,99.90
2018-09-21T15:22:58.996Z,99.90
2018-09-21T15:25:28.523Z,99.90
2018-09-21T15:27:57.797Z,99.90
2018-09-21T15:30:28.206Z,99.90
2018-09-21T15:32:57.290Z,99.90
2018-09-21T15:35:26.948Z,99.90
2018-09-21T15:37:56.230Z,99.90
2018-09-21T15:40:25.522Z,99.90
2018-09-21T15:42:54.752Z,99.90
2018-09-21T15:45:24.018Z,99.90
2018-09-21T15:47:54.360Z,99.90
2018-09-21T15:50:23.625Z,99.90
2018-09-21T15:52:53.407Z,99.90
2018-09-21T15:55:22.592Z,99.90
2018-09-21T15:57:51.926Z,99.90
2018-09-21T16:00:21.059Z,99.90
2018-09-21T16:02:50.147Z,99.90
2018-09-21T16:05:20.560Z,99.90
2018-09-21T16:07:49.770Z,99.90
2018-09-21T16:10:19.004Z,99.90
2018-09-21T16:12:48.147Z,99.90
2018-09-21T16:15:17.278Z,99.90
2018-09-21T16:17:46.442Z,99.90
2018-09-21T16:20:15.635Z,99.90
2018-09-21T16:22:44.740Z,99.90
2018-09-21T16:25:13.857Z,99.90
2018-09-21T16:27:42.985Z,99.90
2018-09-21T16:30:12.120Z,99.90
2018-09-21T16:32:41.366Z,99.70
2018-09-21T16:35:10.569Z,98.80
2018-09-21T16:37:39.673Z,98.60
2018-09-21T16:40:08.861Z,97.30
2018-09-21T16:42:37.965Z,97.70
2018-09-21T16:45:08.041Z,97.80
2018-09-21T16:47:37.872Z,96.90
2018-09-21T16:50:07.120Z,96.20
2018-09-21T16:52:36.507Z,95.40
2018-09-21T16:55:05.618Z,95.90
2018-09-21T16:57:34.808Z,96.30
2018-09-21T17:00:04.088Z,95.80
2018-09-21T17:02:33.230Z,95.80
2018-09-21T17:05:02.570Z,95.90
2018-09-21T17:07:32.072Z,95.90
2018-09-21T17:10:01.232Z,96.00
2018-09-21T17:12:30.989Z,96.10
2018-09-21T17:15:00.232Z,96.20
2018-09-21T17:17:29.402Z,96.10
2018-09-21T17:19:59.463Z,96.30
2018-09-21T17:22:28.711Z,95.30
2018-09-21T17:24:57.884Z,95.20
2018-09-21T17:27:26.991Z,93.80
2018-09-21T17:29:56.192Z,94.00
2018-09-21T17:32:25.282Z,93.50
2018-09-21T17:34:54.419Z,92.10
2018-09-21T17:37:24.092Z,92.50
2018-09-21T17:39:54.163Z,92.60
2018-09-21T17:42:24.024Z,92.10
2018-09-21T17:44:53.269Z,92.10
2018-09-21T17:47:22.619Z,92.90
2018-09-21T17:49:51.856Z,92.10
2018-09-21T17:52:21.814Z,92.60
2018-09-21T17:54:50.984Z,92.50
2018-09-21T17:57:20.292Z,92.50
2018-09-21T17:59:49.440Z,92.30
2018-09-21T18:02:18.727Z,92.60
2018-09-21T18:04:48.271Z,92.30
2018-09-21T18:07:20.672Z,92.30
2018-09-21T18:09:51.854Z,92.90
2018-09-21T18:12:21.257Z,93.10
2018-09-21T18:14:50.800Z,92.80
2018-09-21T18:17:20.422Z,92.50
2018-09-21T18:19:49.575Z,92.80
2018-09-21T18:22:18.863Z,92.70
2018-09-21T18:24:48.376Z,92.70
2018-09-21T18:27:17.628Z,93.50
2018-09-21T18:29:46.921Z,93.20
2018-09-21T18:32:16.052Z,93.00
2018-09-21T18:34:45.246Z,93.50
2018-09-21T18:37:15.090Z,93.00
2018-09-21T18:39:45.612Z,93.50
2018-09-21T18:42:14.957Z,93.80
2018-09-21T18:44:44.228Z,94.00
2018-09-21T18:47:14.544Z,93.80
2018-09-21T18:49:43.903Z,94.30
2018-09-21T18:52:15.661Z,93.70
2018-09-21T18:54:45.430Z,93.80
2018-09-21T18:57:14.715Z,93.80
2018-09-21T18:59:44.823Z,94.10
2018-09-21T19:02:14.693Z,94.00
2018-09-21T19:04:44.556Z,94.30
2018-09-21T19:07:19.287Z,96.00
2018-09-21T19:09:49.246Z,97.30
2018-09-21T19:12:18.357Z,97.70
2018-09-21T19:14:48.838Z,97.10
2018-09-21T19:17:18.031Z,96.80
2018-09-21T19:19:48.137Z,97.20
2018-09-21T19:22:17.495Z,97.40
2018-09-21T19:24:46.637Z,97.30
2018-09-21T19:27:16.490Z,97.50
2018-09-21T19:29:46.704Z,96.90
2018-09-21T19:32:15.853Z,96.90
2018-09-21T19:34:45.287Z,97.40
2018-09-21T19:37:14.478Z,97.40
2018-09-21T19:39:44.532Z,97.60
2018-09-21T19:42:13.808Z,97.70
2018-09-21T19:44:43.049Z,97.40
2018-09-21T19:47:12.308Z,98.00
2018-09-21T19:49:41.579Z,97.20
2018-09-21T19:52:11.080Z,97.10
2018-09-21T19:54:40.423Z,96.90
2018-09-21T19:57:10.078Z,97.20
2018-09-21T19:59:39.236Z,96.90
2018-09-21T20:02:09.818Z,97.50
2018-09-21T20:04:39.084Z,97.80
2018-09-21T20:07:09.700Z,98.00
2018-09-21T20:09:38.906Z,98.00
2018-09-21T20:12:09.093Z,98.20
2018-09-21T20:14:38.248Z,98.50
2018-09-21T20:17:07.603Z,98.50
2018-09-21T20:19:36.896Z,98.80
2018-09-21T20:22:08.783Z,99.90
2018-09-21T20:24:38.009Z,99.90
2018-09-21T20:27:07.383Z,99.90
2018-09-21T20:29:36.698Z,99.90
2018-09-21T20:32:11.119Z,99.90
2018-09-21T20:34:40.412Z,99.90
2018-09-21T20:37:09.658Z,99.90
2018-09-21T20:39:38.846Z,99.90
2018-09-21T20:42:08.177Z,99.90
2018-09-21T20:44:38.037Z,99.90
2018-09-21T20:47:07.393Z,99.90
2018-09-21T20:49:37.213Z,99.90
2018-09-21T20:52:06.833Z,99.90
2018-09-21T20:54:36.111Z,99.90
2018-09-21T20:57:05.482Z,99.90
2018-09-21T20:59:34.804Z,99.90
2018-09-21T21:02:04.152Z,99.90
2018-09-21T21:04:33.356Z,99.90
2018-09-21T21:07:02.448Z,99.90
2018-09-21T21:09:31.876Z,99.90
2018-09-21T21:12:01.180Z,99.90
2018-09-21T21:14:30.555Z,99.80
2018-09-21T21:17:00.557Z,99.90
2018-09-21T21:19:29.839Z,99.90
2018-09-21T21:21:59.042Z,99.90
2018-09-21T21:24:28.193Z,99.90
2018-09-21T21:26:57.328Z,99.90
2018-09-21T21:29:26.441Z,99.90
2018-09-21T21:31:55.592Z,99.90
2018-09-21T21:34:25.632Z,99.90
2018-09-21T21:36:54.819Z,99.90
2018-09-21T21:39:24.001Z,99.90
2018-09-21T21:41:53.451Z,99.90
2018-09-21T21:44:22.511Z,99.90
2018-09-21T21:46:51.694Z,99.90
2018-09-21T21:49:21.956Z,99.90
2018-09-21T21:51:51.258Z,99.90
2018-09-21T21:54:20.465Z,99.90
2018-09-21T21:56:49.572Z,99.90
2018-09-21T21:59:18.825Z,99.90
2018-09-21T22:01:49.242Z,99.90
2018-09-21T22:04:18.967Z,99.90
2018-09-21T22:06:48.346Z,99.90
2018-09-21T22:09:17.495Z,99.90
2018-09-21T22:11:51.840Z,99.90
2018-09-21T22:14:20.997Z,99.90
2018-09-21T22:16:50.081Z,99.90
2018-09-21T22:19:19.166Z,99.90
2018-09-21T22:21:48.372Z,99.90
2018-09-21T22:24:17.568Z,99.90
2018-09-21T22:26:46.671Z,99.90
2018-09-21T22:29:15.768Z,99.90
2018-09-21T22:31:45.513Z,99.90
2018-09-21T22:34:14.736Z,99.90
2018-09-21T22:36:43.972Z,99.90
2018-09-21T22:39:13.047Z,99.90
2018-09-21T22:41:42.310Z,99.90
2018-09-21T22:44:11.488Z,99.90
2018-09-21T22:46:40.632Z,99.90
2018-09-21T22:49:15.656Z,99.90
2018-09-21T22:51:44.770Z,99.90
2018-09-21T22:54:13.928Z,99.90
2018-09-21T22:56:43.195Z,99.90
2018-09-21T22:59:12.355Z,99.90
2018-09-21T23:01:41.423Z,99.90
2018-09-21T23:04:10.503Z,99.90
2018-09-21T23:06:39.678Z,99.90
2018-09-21T23:09:10.861Z,99.90
2018-09-21T23:11:40.641Z,99.90
2018-09-21T23:14:11.115Z,99.90
2018-09-21T23:16:40.639Z,99.90
2018-09-21T23:19:10.029Z,99.90
2018-09-21T23:21:39.402Z,99.90
2018-09-21T23:24:08.499Z,99.90
2018-09-21T23:26:37.616Z,99.90
2018-09-21T23:29:06.703Z,99.90
2018-09-21T23:31:35.856Z,99.90
2018-09-21T23:34:04.942Z,99.90
2018-09-21T23:36:34.018Z,99.90
2018-09-21T23:39:03.452Z,99.90
2018-09-21T23:41:33.394Z,99.90
2018-09-21T23:44:02.486Z,99.90
2018-09-21T23:46:31.575Z,99.90
2018-09-21T23:49:00.722Z,99.90
2018-09-21T23:51:29.847Z,99.90
2018-09-21T23:53:58.975Z,99.90
2018-09-21T23:56:29.534Z,99.90
2018-09-21T23:58:58.863Z,99.90
